sensor_id;sensor_type;location;lat;lon;timestamp;temperature;humidity
29295;DHT22;16305;48.566;8.846;2023-03-31T00:01:30;9.40;99.90
29295;DHT22;16305;48.566;8.846;2023-03-31T00:03:58;9.40;99.90
29295;DHT22;16305;48.566;8.846;2023-03-31T00:06:32;9.20;99.90
29295;DHT22;16305;48.566;8.846;2023-03-31T00:09:04;9.10;99.90
29295;DHT22;16305;48.566;8.846;2023-03-31T00:11:29;9.00;99.90
29295;DHT22;16305;48.566;8.846;2023-03-31T00:13:55;9.00;99.90
29295;DHT22;16305;48.566;8.846;2023-03-31T00:16:20;8.90;99.90
29295;DHT22;16305;48.566;8.846;2023-03-31T00:18:46;8.90;99.90
29295;DHT22;16305;48.566;8.846;2023-03-31T00:21:17;8.80;99.90
29295;DHT22;16305;48.566;8.846;2023-03-31T00:24:05;8.80;99.90
29295;DHT22;16305;48.566;8.846;2023-03-31T00:26:32;8.70;99.90
29295;DHT22;16305;48.566;8.846;2023-03-31T00:28:58;8.80;99.90
29295;DHT22;16305;48.566;8.846;2023-03-31T00:31:25;8.90;99.90
29295;DHT22;16305;48.566;8.846;2023-03-31T00:33:52;9.00;99.90
29295;DHT22;16305;48.566;8.846;2023-03-31T00:36:17;9.00;99.90
29295;DHT22;16305;48.566;8.846;2023-03-31T00:38:49;9.10;99.90
29295;DHT22;16305;48.566;8.846;2023-03-31T00:41:16;9.20;99.90
29295;DHT22;16305;48.566;8.846;2023-03-31T00:46:41;9.30;99.90
29295;DHT22;16305;48.566;8.846;2023-03-31T00:49:15;9.30;99.90
29295;DHT22;16305;48.566;8.846;2023-03-31T00:51:45;9.30;99.90
29295;DHT22;16305;48.566;8.846;2023-03-31T00:54:12;9.20;99.90
29295;DHT22;16305;48.566;8.846;2023-03-31T00:56:42;9.10;99.90
29295;DHT22;16305;48.566;8.846;2023-03-31T00:59:10;9.10;99.90
29295;DHT22;16305;48.566;8.846;2023-03-31T01:01:38;9.10;99.90
29295;DHT22;16305;48.566;8.846;2023-03-31T01:04:07;9.00;99.90
29295;DHT22;16305;48.566;8.846;2023-03-31T01:06:37;9.00;99.90
29295;DHT22;16305;48.566;8.846;2023-03-31T01:09:11;9.00;99.90
29295;DHT22;16305;48.566;8.846;2023-03-31T01:11:39;9.00;99.90
29295;DHT22;16305;48.566;8.846;2023-03-31T01:14:04;9.00;99.90
29295;DHT22;16305;48.566;8.846;2023-03-31T01:16:30;9.20;99.90
29295;DHT22;16305;48.566;8.846;2023-03-31T01:18:58;9.30;99.90
29295;DHT22;16305;48.566;8.846;2023-03-31T01:27:15;9.50;99.90
29295;DHT22;16305;48.566;8.846;2023-03-31T01:29:51;9.50;99.90
29295;DHT22;16305;48.566;8.846;2023-03-31T01:41:29;9.60;99.90
29295;DHT22;16305;48.566;8.846;2023-03-31T01:44:22;9.60;99.90
29295;DHT22;16305;48.566;8.846;2023-03-31T01:46:55;9.70;99.90
29295;DHT22;16305;48.566;8.846;2023-03-31T01:52:21;9.70;99.90
29295;DHT22;16305;48.566;8.846;2023-03-31T01:55:03;9.60;99.90
29295;DHT22;16305;48.566;8.846;2023-03-31T01:57:37;9.70;99.90
29295;DHT22;16305;48.566;8.846;2023-03-31T02:00:11;9.60;99.90
29295;DHT22;16305;48.566;8.846;2023-03-31T02:05:15;9.40;99.90
29295;DHT22;16305;48.566;8.846;2023-03-31T02:07:47;9.20;99.90
29295;DHT22;16305;48.566;8.846;2023-03-31T02:10:15;9.30;99.90
29295;DHT22;16305;48.566;8.846;2023-03-31T02:12:43;9.20;99.90
29295;DHT22;16305;48.566;8.846;2023-03-31T02:15:13;9.10;99.90
29295;DHT22;16305;48.566;8.846;2023-03-31T02:17:41;9.10;99.90
29295;DHT22;16305;48.566;8.846;2023-03-31T02:20:11;9.00;99.90
29295;DHT22;16305;48.566;8.846;2023-03-31T02:22:42;9.00;99.90
29295;DHT22;16305;48.566;8.846;2023-03-31T02:25:12;9.00;99.90
29295;DHT22;16305;48.566;8.846;2023-03-31T02:27:41;8.90;99.90
29295;DHT22;16305;48.566;8.846;2023-03-31T02:30:09;8.90;99.90
29295;DHT22;16305;48.566;8.846;2023-03-31T02:32:40;8.90;99.90
29295;DHT22;16305;48.566;8.846;2023-03-31T02:35:09;8.80;99.90
29295;DHT22;16305;48.566;8.846;2023-03-31T02:37:37;8.70;99.90
29295;DHT22;16305;48.566;8.846;2023-03-31T02:40:13;8.70;99.90
29295;DHT22;16305;48.566;8.846;2023-03-31T02:42:40;8.70;99.90
29295;DHT22;16305;48.566;8.846;2023-03-31T02:45:36;8.80;99.90
29295;DHT22;16305;48.566;8.846;2023-03-31T02:48:04;8.90;99.90
29295;DHT22;16305;48.566;8.846;2023-03-31T02:50:38;8.90;99.90
29295;DHT22;16305;48.566;8.846;2023-03-31T02:53:22;8.90;99.90
29295;DHT22;16305;48.566;8.846;2023-03-31T02:55:58;8.90;99.90
29295;DHT22;16305;48.566;8.846;2023-03-31T03:06:53;8.70;99.90
29295;DHT22;16305;48.566;8.846;2023-03-31T03:12:32;8.70;99.90
29295;DHT22;16305;48.566;8.846;2023-03-31T03:17:44;8.60;99.90
29295;DHT22;16305;48.566;8.846;2023-03-31T03:20:12;8.50;99.90
29295;DHT22;16305;48.566;8.846;2023-03-31T03:22:39;8.40;99.90
29295;DHT22;16305;48.566;8.846;2023-03-31T03:25:05;8.30;99.90
29295;DHT22;16305;48.566;8.846;2023-03-31T03:27:31;8.20;99.90
29295;DHT22;16305;48.566;8.846;2023-03-31T03:29:57;8.10;99.90
29295;DHT22;16305;48.566;8.846;2023-03-31T03:32:23;8.00;99.90
29295;DHT22;16305;48.566;8.846;2023-03-31T03:34:49;7.90;99.90
29295;DHT22;16305;48.566;8.846;2023-03-31T03:37:14;7.90;99.90
29295;DHT22;16305;48.566;8.846;2023-03-31T03:39:40;7.80;99.90
29295;DHT22;16305;48.566;8.846;2023-03-31T03:42:05;7.80;99.90
29295;DHT22;16305;48.566;8.846;2023-03-31T03:44:31;7.70;99.90
29295;DHT22;16305;48.566;8.846;2023-03-31T03:46:56;7.70;99.90
29295;DHT22;16305;48.566;8.846;2023-03-31T03:49:22;7.70;99.90
29295;DHT22;16305;48.566;8.846;2023-03-31T03:51:47;7.60;99.90
29295;DHT22;16305;48.566;8.846;2023-03-31T03:54:13;7.50;99.90
29295;DHT22;16305;48.566;8.846;2023-03-31T03:56:39;7.50;99.90
29295;DHT22;16305;48.566;8.846;2023-03-31T03:59:04;7.50;99.90
29295;DHT22;16305;48.566;8.846;2023-03-31T04:01:30;7.50;99.90
29295;DHT22;16305;48.566;8.846;2023-03-31T04:03:56;7.50;99.90
29295;DHT22;16305;48.566;8.846;2023-03-31T04:06:21;7.50;99.90
29295;DHT22;16305;48.566;8.846;2023-03-31T04:08:47;7.60;99.90
29295;DHT22;16305;48.566;8.846;2023-03-31T04:11:15;7.50;99.90
29295;DHT22;16305;48.566;8.846;2023-03-31T04:13:44;7.40;99.90
29295;DHT22;16305;48.566;8.846;2023-03-31T04:16:10;7.40;99.90
29295;DHT22;16305;48.566;8.846;2023-03-31T04:18:36;7.50;99.90
29295;DHT22;16305;48.566;8.846;2023-03-31T04:21:07;7.50;99.90
29295;DHT22;16305;48.566;8.846;2023-03-31T04:23:37;7.30;99.90
29295;DHT22;16305;48.566;8.846;2023-03-31T04:26:03;7.30;99.90
29295;DHT22;16305;48.566;8.846;2023-03-31T04:28:36;7.30;99.90
29295;DHT22;16305;48.566;8.846;2023-03-31T04:31:04;7.10;99.90
29295;DHT22;16305;48.566;8.846;2023-03-31T04:33:33;7.10;99.90
29295;DHT22;16305;48.566;8.846;2023-03-31T04:36:03;7.20;99.90
29295;DHT22;16305;48.566;8.846;2023-03-31T04:38:32;7.20;99.90
29295;DHT22;16305;48.566;8.846;2023-03-31T04:41:00;7.20;99.90
29295;DHT22;16305;48.566;8.846;2023-03-31T04:43:26;7.30;99.90
29295;DHT22;16305;48.566;8.846;2023-03-31T04:45:51;7.30;99.90
29295;DHT22;16305;48.566;8.846;2023-03-31T04:48:17;7.40;99.90
29295;DHT22;16305;48.566;8.846;2023-03-31T04:50:42;7.40;99.90
29295;DHT22;16305;48.566;8.846;2023-03-31T04:53:08;7.50;99.90
29295;DHT22;16305;48.566;8.846;2023-03-31T04:55:34;7.40;99.90
29295;DHT22;16305;48.566;8.846;2023-03-31T04:57:59;7.50;99.90
29295;DHT22;16305;48.566;8.846;2023-03-31T05:00:25;7.60;99.90
29295;DHT22;16305;48.566;8.846;2023-03-31T05:02:51;7.60;99.90
29295;DHT22;16305;48.566;8.846;2023-03-31T05:05:17;7.60;99.90
29295;DHT22;16305;48.566;8.846;2023-03-31T05:07:42;7.50;99.90
29295;DHT22;16305;48.566;8.846;2023-03-31T05:10:08;7.60;99.90
29295;DHT22;16305;48.566;8.846;2023-03-31T05:12:38;7.60;99.90
29295;DHT22;16305;48.566;8.846;2023-03-31T05:15:05;7.60;99.90
29295;DHT22;16305;48.566;8.846;2023-03-31T05:17:31;7.70;99.90
29295;DHT22;16305;48.566;8.846;2023-03-31T05:19:57;7.70;99.90
29295;DHT22;16305;48.566;8.846;2023-03-31T05:22:23;7.80;99.90
29295;DHT22;16305;48.566;8.846;2023-03-31T05:24:48;7.80;99.90
29295;DHT22;16305;48.566;8.846;2023-03-31T05:27:14;7.80;99.90
29295;DHT22;16305;48.566;8.846;2023-03-31T05:29:40;7.80;99.90
29295;DHT22;16305;48.566;8.846;2023-03-31T05:32:05;7.90;99.90
29295;DHT22;16305;48.566;8.846;2023-03-31T05:34:31;7.80;99.90
29295;DHT22;16305;48.566;8.846;2023-03-31T05:36:56;7.90;99.90
29295;DHT22;16305;48.566;8.846;2023-03-31T05:39:23;7.90;99.90
29295;DHT22;16305;48.566;8.846;2023-03-31T05:41:49;7.90;99.90
29295;DHT22;16305;48.566;8.846;2023-03-31T05:44:14;8.00;99.90
29295;DHT22;16305;48.566;8.846;2023-03-31T05:46:40;8.00;99.90
29295;DHT22;16305;48.566;8.846;2023-03-31T05:49:06;7.90;99.90
29295;DHT22;16305;48.566;8.846;2023-03-31T05:51:32;8.00;99.90
29295;DHT22;16305;48.566;8.846;2023-03-31T05:53:58;8.00;99.90
29295;DHT22;16305;48.566;8.846;2023-03-31T05:56:23;8.10;99.90
29295;DHT22;16305;48.566;8.846;2023-03-31T05:58:49;8.00;99.90
29295;DHT22;16305;48.566;8.846;2023-03-31T06:01:16;8.00;99.90
29295;DHT22;16305;48.566;8.846;2023-03-31T06:03:45;8.10;99.90
29295;DHT22;16305;48.566;8.846;2023-03-31T06:06:11;8.10;99.90
29295;DHT22;16305;48.566;8.846;2023-03-31T06:08:37;8.10;99.90
29295;DHT22;16305;48.566;8.846;2023-03-31T06:11:04;8.10;99.90
29295;DHT22;16305;48.566;8.846;2023-03-31T06:13:30;8.20;99.90
29295;DHT22;16305;48.566;8.846;2023-03-31T06:15:57;8.20;99.90
29295;DHT22;16305;48.566;8.846;2023-03-31T06:18:24;8.20;99.90
29295;DHT22;16305;48.566;8.846;2023-03-31T06:20:51;8.20;99.90
29295;DHT22;16305;48.566;8.846;2023-03-31T06:23:16;8.20;99.90
29295;DHT22;16305;48.566;8.846;2023-03-31T06:25:42;8.10;99.90
29295;DHT22;16305;48.566;8.846;2023-03-31T06:28:07;8.10;99.90
29295;DHT22;16305;48.566;8.846;2023-03-31T06:30:33;8.10;99.90
29295;DHT22;16305;48.566;8.846;2023-03-31T06:32:59;8.10;99.90
29295;DHT22;16305;48.566;8.846;2023-03-31T06:35:25;8.00;99.90
29295;DHT22;16305;48.566;8.846;2023-03-31T06:37:51;8.00;99.90
29295;DHT22;16305;48.566;8.846;2023-03-31T06:40:16;8.00;99.90
29295;DHT22;16305;48.566;8.846;2023-03-31T06:42:42;7.90;99.90
29295;DHT22;16305;48.566;8.846;2023-03-31T06:45:08;7.90;99.90
29295;DHT22;16305;48.566;8.846;2023-03-31T06:47:34;7.90;99.90
29295;DHT22;16305;48.566;8.846;2023-03-31T06:50:02;8.10;99.90
29295;DHT22;16305;48.566;8.846;2023-03-31T06:52:28;8.20;99.90
29295;DHT22;16305;48.566;8.846;2023-03-31T06:54:53;8.50;99.90
29295;DHT22;16305;48.566;8.846;2023-03-31T06:57:19;8.50;99.90
29295;DHT22;16305;48.566;8.846;2023-03-31T06:59:45;8.50;99.90
29295;DHT22;16305;48.566;8.846;2023-03-31T07:02:11;8.50;99.90
29295;DHT22;16305;48.566;8.846;2023-03-31T07:04:36;8.30;99.90
29295;DHT22;16305;48.566;8.846;2023-03-31T07:07:02;8.30;99.90
29295;DHT22;16305;48.566;8.846;2023-03-31T07:09:27;8.30;99.90
29295;DHT22;16305;48.566;8.846;2023-03-31T07:11:53;8.30;99.90
29295;DHT22;16305;48.566;8.846;2023-03-31T07:14:18;8.20;99.90
29295;DHT22;16305;48.566;8.846;2023-03-31T07:16:44;8.20;99.90
29295;DHT22;16305;48.566;8.846;2023-03-31T07:19:09;8.20;99.90
29295;DHT22;16305;48.566;8.846;2023-03-31T07:21:38;8.20;99.90
29295;DHT22;16305;48.566;8.846;2023-03-31T07:24:04;8.20;99.90
29295;DHT22;16305;48.566;8.846;2023-03-31T07:26:29;8.20;99.90
29295;DHT22;16305;48.566;8.846;2023-03-31T07:28:55;8.20;99.90
29295;DHT22;16305;48.566;8.846;2023-03-31T07:31:22;8.30;99.90
29295;DHT22;16305;48.566;8.846;2023-03-31T07:33:47;8.30;99.90
29295;DHT22;16305;48.566;8.846;2023-03-31T07:36:13;8.20;99.90
29295;DHT22;16305;48.566;8.846;2023-03-31T07:38:40;8.30;99.90
29295;DHT22;16305;48.566;8.846;2023-03-31T07:41:10;8.30;99.90
29295;DHT22;16305;48.566;8.846;2023-03-31T07:43:36;8.30;99.90
29295;DHT22;16305;48.566;8.846;2023-03-31T07:46:02;8.40;99.90
29295;DHT22;16305;48.566;8.846;2023-03-31T07:48:27;8.30;99.90
29295;DHT22;16305;48.566;8.846;2023-03-31T07:50:54;8.30;99.90
29295;DHT22;16305;48.566;8.846;2023-03-31T07:53:19;8.30;99.90
29295;DHT22;16305;48.566;8.846;2023-03-31T07:55:46;8.40;99.90
29295;DHT22;16305;48.566;8.846;2023-03-31T07:58:12;8.70;99.90
29295;DHT22;16305;48.566;8.846;2023-03-31T08:00:38;8.70;99.90
29295;DHT22;16305;48.566;8.846;2023-03-31T08:03:03;8.90;99.90
29295;DHT22;16305;48.566;8.846;2023-03-31T08:05:29;9.00;99.90
29295;DHT22;16305;48.566;8.846;2023-03-31T08:07:54;9.10;99.90
29295;DHT22;16305;48.566;8.846;2023-03-31T08:10:23;9.30;99.90
29295;DHT22;16305;48.566;8.846;2023-03-31T08:12:49;9.40;99.90
29295;DHT22;16305;48.566;8.846;2023-03-31T08:15:15;9.60;99.90
29295;DHT22;16305;48.566;8.846;2023-03-31T08:17:41;9.80;99.90
29295;DHT22;16305;48.566;8.846;2023-03-31T08:20:07;10.00;99.90
29295;DHT22;16305;48.566;8.846;2023-03-31T08:22:38;10.20;99.90
29295;DHT22;16305;48.566;8.846;2023-03-31T08:25:05;10.50;99.90
29295;DHT22;16305;48.566;8.846;2023-03-31T08:27:33;10.70;99.90
29295;DHT22;16305;48.566;8.846;2023-03-31T08:29:59;10.90;99.90
29295;DHT22;16305;48.566;8.846;2023-03-31T08:32:32;11.00;99.90
29295;DHT22;16305;48.566;8.846;2023-03-31T08:34:58;11.00;99.90
29295;DHT22;16305;48.566;8.846;2023-03-31T08:37:23;11.10;99.90
29295;DHT22;16305;48.566;8.846;2023-03-31T08:39:50;11.20;99.90
29295;DHT22;16305;48.566;8.846;2023-03-31T08:42:20;11.20;99.90
29295;DHT22;16305;48.566;8.846;2023-03-31T08:47:33;11.30;99.90
29295;DHT22;16305;48.566;8.846;2023-03-31T08:50:07;11.40;99.90
29295;DHT22;16305;48.566;8.846;2023-03-31T08:52:39;11.40;99.90
29295;DHT22;16305;48.566;8.846;2023-03-31T08:55:11;11.60;99.90
29295;DHT22;16305;48.566;8.846;2023-03-31T08:57:52;11.70;99.90
29295;DHT22;16305;48.566;8.846;2023-03-31T09:00:18;11.70;99.90
29295;DHT22;16305;48.566;8.846;2023-03-31T09:05:36;11.60;99.90
29295;DHT22;16305;48.566;8.846;2023-03-31T09:08:14;11.60;99.90
29295;DHT22;16305;48.566;8.846;2023-03-31T09:10:54;11.70;99.90
29295;DHT22;16305;48.566;8.846;2023-03-31T09:16:13;11.80;99.90
29295;DHT22;16305;48.566;8.846;2023-03-31T09:18:41;11.90;99.90
29295;DHT22;16305;48.566;8.846;2023-03-31T09:26:52;12.00;99.90
29295;DHT22;16305;48.566;8.846;2023-03-31T09:29:57;12.00;99.90
29295;DHT22;16305;48.566;8.846;2023-03-31T09:32:30;12.20;99.90
29295;DHT22;16305;48.566;8.846;2023-03-31T09:35:06;12.20;99.90
29295;DHT22;16305;48.566;8.846;2023-03-31T09:37:38;12.30;99.90
29295;DHT22;16305;48.566;8.846;2023-03-31T09:40:05;12.20;99.90
29295;DHT22;16305;48.566;8.846;2023-03-31T09:42:35;12.40;99.90
29295;DHT22;16305;48.566;8.846;2023-03-31T09:45:02;12.50;99.90
29295;DHT22;16305;48.566;8.846;2023-03-31T09:49:58;12.50;99.90
29295;DHT22;16305;48.566;8.846;2023-03-31T09:52:30;12.60;99.90
29295;DHT22;16305;48.566;8.846;2023-03-31T09:57:42;12.60;99.90
29295;DHT22;16305;48.566;8.846;2023-03-31T10:02:55;12.60;99.90
29295;DHT22;16305;48.566;8.846;2023-03-31T10:05:33;12.90;99.90
29295;DHT22;16305;48.566;8.846;2023-03-31T10:08:18;13.00;99.90
29295;DHT22;16305;48.566;8.846;2023-03-31T10:14:04;13.00;99.90
29295;DHT22;16305;48.566;8.846;2023-03-31T10:19:20;12.90;99.90
29295;DHT22;16305;48.566;8.846;2023-03-31T10:21:48;12.90;99.90
29295;DHT22;16305;48.566;8.846;2023-03-31T10:24:19;13.00;99.90
29295;DHT22;16305;48.566;8.846;2023-03-31T10:26:49;13.20;99.90
29295;DHT22;16305;48.566;8.846;2023-03-31T10:29:23;13.30;99.90
29295;DHT22;16305;48.566;8.846;2023-03-31T10:31:51;13.30;99.90
29295;DHT22;16305;48.566;8.846;2023-03-31T10:34:17;13.10;99.90
29295;DHT22;16305;48.566;8.846;2023-03-31T10:36:50;13.00;99.90
29295;DHT22;16305;48.566;8.846;2023-03-31T10:39:19;13.10;99.90
29295;DHT22;16305;48.566;8.846;2023-03-31T10:41:51;13.00;99.90
29295;DHT22;16305;48.566;8.846;2023-03-31T10:44:33;13.10;99.90
29295;DHT22;16305;48.566;8.846;2023-03-31T10:49:40;12.90;99.90
29295;DHT22;16305;48.566;8.846;2023-03-31T10:52:27;12.90;99.90
29295;DHT22;16305;48.566;8.846;2023-03-31T10:54:57;12.50;99.90
29295;DHT22;16305;48.566;8.846;2023-03-31T10:57:55;12.20;99.90
29295;DHT22;16305;48.566;8.846;2023-03-31T11:00:49;11.40;99.90
29295;DHT22;16305;48.566;8.846;2023-03-31T11:03:48;10.80;99.90
29295;DHT22;16305;48.566;8.846;2023-03-31T11:11:47;10.30;99.90
29295;DHT22;16305;48.566;8.846;2023-03-31T11:14:35;7.80;99.90
29295;DHT22;16305;48.566;8.846;2023-03-31T11:17:24;6.90;99.90
29295;DHT22;16305;48.566;8.846;2023-03-31T11:20:20;7.00;99.90
29295;DHT22;16305;48.566;8.846;2023-03-31T11:23:05;7.20;99.90
29295;DHT22;16305;48.566;8.846;2023-03-31T11:25:42;7.30;99.90
29295;DHT22;16305;48.566;8.846;2023-03-31T11:39:43;7.20;99.90
29295;DHT22;16305;48.566;8.846;2023-03-31T11:42:20;7.40;99.90
29295;DHT22;16305;48.566;8.846;2023-03-31T11:44:51;7.50;99.90
29295;DHT22;16305;48.566;8.846;2023-03-31T11:47:32;7.70;99.90
29295;DHT22;16305;48.566;8.846;2023-03-31T11:50:10;7.90;99.90
29295;DHT22;16305;48.566;8.846;2023-03-31T11:52:43;8.00;99.90
29295;DHT22;16305;48.566;8.846;2023-03-31T11:55:16;8.00;99.90
29295;DHT22;16305;48.566;8.846;2023-03-31T11:58:05;8.00;99.90
29295;DHT22;16305;48.566;8.846;2023-03-31T12:00:39;8.20;99.90
29295;DHT22;16305;48.566;8.846;2023-03-31T12:05:48;8.40;99.90
29295;DHT22;16305;48.566;8.846;2023-03-31T12:10:59;8.70;99.90
29295;DHT22;16305;48.566;8.846;2023-03-31T12:16:28;8.80;99.90
29295;DHT22;16305;48.566;8.846;2023-03-31T12:19:17;8.80;99.90
29295;DHT22;16305;48.566;8.846;2023-03-31T12:22:33;9.00;99.90
29295;DHT22;16305;48.566;8.846;2023-03-31T12:24:39;9.50;99.90
29295;DHT22;16305;48.566;8.846;2023-03-31T12:27:27;9.90;99.90
29295;DHT22;16305;48.566;8.846;2023-03-31T12:29:56;10.00;99.90
29295;DHT22;16305;48.566;8.846;2023-03-31T12:32:27;10.10;99.90
29295;DHT22;16305;48.566;8.846;2023-03-31T12:35:01;10.20;99.90
29295;DHT22;16305;48.566;8.846;2023-03-31T12:37:46;10.00;99.90
29295;DHT22;16305;48.566;8.846;2023-03-31T12:43:29;10.60;99.90
29295;DHT22;16305;48.566;8.846;2023-03-31T12:48:47;11.20;99.90
29295;DHT22;16305;48.566;8.846;2023-03-31T12:51:36;11.40;99.90
29295;DHT22;16305;48.566;8.846;2023-03-31T12:59:41;10.80;99.90
29295;DHT22;16305;48.566;8.846;2023-03-31T13:04:39;10.80;99.90
29295;DHT22;16305;48.566;8.846;2023-03-31T13:07:34;11.00;99.90
29295;DHT22;16305;48.566;8.846;2023-03-31T13:13:11;11.00;99.90
29295;DHT22;16305;48.566;8.846;2023-03-31T13:15:38;10.90;99.90
29295;DHT22;16305;48.566;8.846;2023-03-31T13:18:17;10.80;99.90
29295;DHT22;16305;48.566;8.846;2023-03-31T13:20:44;10.60;99.90
29295;DHT22;16305;48.566;8.846;2023-03-31T13:29:07;9.30;99.90
29295;DHT22;16305;48.566;8.846;2023-03-31T13:31:20;9.10;99.90
29295;DHT22;16305;48.566;8.846;2023-03-31T13:34:01;9.00;99.90
29295;DHT22;16305;48.566;8.846;2023-03-31T13:45:58;7.30;99.90
29295;DHT22;16305;48.566;8.846;2023-03-31T13:51:50;7.00;99.90
29295;DHT22;16305;48.566;8.846;2023-03-31T14:00:19;8.30;99.90
29295;DHT22;16305;48.566;8.846;2023-03-31T14:03:18;9.10;99.90
29295;DHT22;16305;48.566;8.846;2023-03-31T14:06:15;9.60;99.90
29295;DHT22;16305;48.566;8.846;2023-03-31T14:08:50;9.20;99.90
29295;DHT22;16305;48.566;8.846;2023-03-31T14:11:21;8.70;99.90
29295;DHT22;16305;48.566;8.846;2023-03-31T14:14:26;8.50;99.90
29295;DHT22;16305;48.566;8.846;2023-03-31T14:16:56;8.40;99.90
29295;DHT22;16305;48.566;8.846;2023-03-31T14:22:39;8.50;99.90
29295;DHT22;16305;48.566;8.846;2023-03-31T14:25:18;8.70;99.90
29295;DHT22;16305;48.566;8.846;2023-03-31T14:31:03;9.60;99.90
29295;DHT22;16305;48.566;8.846;2023-03-31T14:39:05;11.20;99.90
29295;DHT22;16305;48.566;8.846;2023-03-31T14:41:33;11.20;99.90
29295;DHT22;16305;48.566;8.846;2023-03-31T14:44:04;11.50;99.90
29295;DHT22;16305;48.566;8.846;2023-03-31T14:46:34;11.50;99.90
29295;DHT22;16305;48.566;8.846;2023-03-31T14:49:12;11.70;99.90
29295;DHT22;16305;48.566;8.846;2023-03-31T14:51:42;11.60;99.90
29295;DHT22;16305;48.566;8.846;2023-03-31T14:54:15;12.10;99.90
29295;DHT22;16305;48.566;8.846;2023-03-31T14:56:42;12.00;99.90
29295;DHT22;16305;48.566;8.846;2023-03-31T14:59:08;12.30;99.90
29295;DHT22;16305;48.566;8.846;2023-03-31T15:01:35;12.60;99.90
29295;DHT22;16305;48.566;8.846;2023-03-31T15:04:14;12.50;99.90
29295;DHT22;16305;48.566;8.846;2023-03-31T15:06:41;11.60;99.90
29295;DHT22;16305;48.566;8.846;2023-03-31T15:09:14;11.10;99.90
29295;DHT22;16305;48.566;8.846;2023-03-31T15:11:41;10.90;99.90
29295;DHT22;16305;48.566;8.846;2023-03-31T15:14:08;10.90;99.90
29295;DHT22;16305;48.566;8.846;2023-03-31T15:16:43;11.60;99.90
29295;DHT22;16305;48.566;8.846;2023-03-31T15:21:45;11.60;99.90
29295;DHT22;16305;48.566;8.846;2023-03-31T15:24:12;11.40;99.90
29295;DHT22;16305;48.566;8.846;2023-03-31T15:26:47;11.20;99.90
29295;DHT22;16305;48.566;8.846;2023-03-31T15:31:40;10.90;99.90
29295;DHT22;16305;48.566;8.846;2023-03-31T15:34:26;10.80;99.90
29295;DHT22;16305;48.566;8.846;2023-03-31T15:36:54;11.00;99.90
29295;DHT22;16305;48.566;8.846;2023-03-31T15:39:20;10.90;99.90
29295;DHT22;16305;48.566;8.846;2023-03-31T15:41:47;10.50;99.90
29295;DHT22;16305;48.566;8.846;2023-03-31T15:44:35;10.40;99.90
29295;DHT22;16305;48.566;8.846;2023-03-31T15:49:47;10.20;99.90
29295;DHT22;16305;48.566;8.846;2023-03-31T15:52:35;10.10;99.90
29295;DHT22;16305;48.566;8.846;2023-03-31T15:57:57;10.00;99.90
29295;DHT22;16305;48.566;8.846;2023-03-31T16:03:26;9.90;99.90
29295;DHT22;16305;48.566;8.846;2023-03-31T16:06:02;9.80;99.90
29295;DHT22;16305;48.566;8.846;2023-03-31T16:08:45;9.80;99.90
29295;DHT22;16305;48.566;8.846;2023-03-31T16:11:16;9.70;99.90
29295;DHT22;16305;48.566;8.846;2023-03-31T16:13:48;9.70;99.90
29295;DHT22;16305;48.566;8.846;2023-03-31T16:16:21;9.40;99.90
29295;DHT22;16305;48.566;8.846;2023-03-31T16:19:04;9.20;99.90
29295;DHT22;16305;48.566;8.846;2023-03-31T16:21:39;8.90;99.90
29295;DHT22;16305;48.566;8.846;2023-03-31T16:24:06;8.60;99.90
29295;DHT22;16305;48.566;8.846;2023-03-31T16:26:32;8.50;99.90
29295;DHT22;16305;48.566;8.846;2023-03-31T16:28:58;8.40;99.90
29295;DHT22;16305;48.566;8.846;2023-03-31T16:31:32;8.20;99.90
29295;DHT22;16305;48.566;8.846;2023-03-31T16:34:03;8.10;99.90
29295;DHT22;16305;48.566;8.846;2023-03-31T16:36:29;8.00;99.90
29295;DHT22;16305;48.566;8.846;2023-03-31T16:38:56;8.00;99.90
29295;DHT22;16305;48.566;8.846;2023-03-31T16:41:23;8.10;99.90
29295;DHT22;16305;48.566;8.846;2023-03-31T16:43:49;8.20;99.90
29295;DHT22;16305;48.566;8.846;2023-03-31T16:46:19;8.30;99.90
29295;DHT22;16305;48.566;8.846;2023-03-31T16:48:45;8.30;99.90
29295;DHT22;16305;48.566;8.846;2023-03-31T16:51:10;8.20;99.90
29295;DHT22;16305;48.566;8.846;2023-03-31T16:53:36;8.00;99.90
29295;DHT22;16305;48.566;8.846;2023-03-31T16:56:03;7.90;99.90
29295;DHT22;16305;48.566;8.846;2023-03-31T16:58:29;7.80;99.90
29295;DHT22;16305;48.566;8.846;2023-03-31T17:00:55;7.80;99.90
29295;DHT22;16305;48.566;8.846;2023-03-31T17:03:21;7.70;99.90
29295;DHT22;16305;48.566;8.846;2023-03-31T17:05:51;7.70;99.90
29295;DHT22;16305;48.566;8.846;2023-03-31T17:08:19;7.70;99.90
29295;DHT22;16305;48.566;8.846;2023-03-31T17:13:19;7.60;99.90
29295;DHT22;16305;48.566;8.846;2023-03-31T17:15:45;7.70;99.90
29295;DHT22;16305;48.566;8.846;2023-03-31T17:18:10;7.70;99.90
29295;DHT22;16305;48.566;8.846;2023-03-31T17:20:36;7.70;99.90
29295;DHT22;16305;48.566;8.846;2023-03-31T17:23:01;7.70;99.90
29295;DHT22;16305;48.566;8.846;2023-03-31T17:25:27;7.80;99.90
29295;DHT22;16305;48.566;8.846;2023-03-31T17:27:52;7.90;99.90
29295;DHT22;16305;48.566;8.846;2023-03-31T17:30:20;8.00;99.90
29295;DHT22;16305;48.566;8.846;2023-03-31T17:32:46;8.00;99.90
29295;DHT22;16305;48.566;8.846;2023-03-31T17:35:12;8.00;99.90
29295;DHT22;16305;48.566;8.846;2023-03-31T17:37:45;8.00;99.90
29295;DHT22;16305;48.566;8.846;2023-03-31T17:40:11;8.00;99.90
29295;DHT22;16305;48.566;8.846;2023-03-31T17:42:36;8.00;99.90
29295;DHT22;16305;48.566;8.846;2023-03-31T17:45:03;8.00;99.90
29295;DHT22;16305;48.566;8.846;2023-03-31T17:47:30;8.00;99.90
29295;DHT22;16305;48.566;8.846;2023-03-31T17:49:57;8.00;99.90
29295;DHT22;16305;48.566;8.846;2023-03-31T17:52:23;7.90;99.90
29295;DHT22;16305;48.566;8.846;2023-03-31T17:54:49;8.00;99.90
29295;DHT22;16305;48.566;8.846;2023-03-31T17:57:14;7.90;99.90
29295;DHT22;16305;48.566;8.846;2023-03-31T17:59:41;8.00;99.90
29295;DHT22;16305;48.566;8.846;2023-03-31T18:02:06;8.00;99.90
29295;DHT22;16305;48.566;8.846;2023-03-31T18:04:32;7.90;99.90
29295;DHT22;16305;48.566;8.846;2023-03-31T18:06:58;7.90;99.90
29295;DHT22;16305;48.566;8.846;2023-03-31T18:09:23;7.90;99.90
29295;DHT22;16305;48.566;8.846;2023-03-31T18:11:49;7.80;99.90
29295;DHT22;16305;48.566;8.846;2023-03-31T18:14:15;7.80;99.90
29295;DHT22;16305;48.566;8.846;2023-03-31T18:16:41;7.90;99.90
29295;DHT22;16305;48.566;8.846;2023-03-31T18:19:06;7.80;99.90
29295;DHT22;16305;48.566;8.846;2023-03-31T18:21:32;7.90;99.90
29295;DHT22;16305;48.566;8.846;2023-03-31T18:23:59;7.80;99.90
29295;DHT22;16305;48.566;8.846;2023-03-31T18:26:25;7.90;99.90
29295;DHT22;16305;48.566;8.846;2023-03-31T18:28:51;7.80;99.90
29295;DHT22;16305;48.566;8.846;2023-03-31T18:31:17;7.80;99.90
29295;DHT22;16305;48.566;8.846;2023-03-31T18:33:43;7.80;99.90
29295;DHT22;16305;48.566;8.846;2023-03-31T18:36:17;7.80;99.90
29295;DHT22;16305;48.566;8.846;2023-03-31T18:38:44;7.80;99.90
29295;DHT22;16305;48.566;8.846;2023-03-31T18:41:10;7.70;99.90
29295;DHT22;16305;48.566;8.846;2023-03-31T18:43:37;7.70;99.90